JAL504 RJCC-RJTT
Flight info
| Callsign | JAL504 |
|---|---|
| Flight time | 1h 20m |
| Altitude | 40000 |
| Route | DCT TOBBY Y10 GODIN |
| Aircraft | A359/M-VGDW/C |
Departure
| Time | 2026-04-30 09:34 |
|---|---|
| Airport | New Chitose Airport (RJCC) |
Arrival
| Time | 2026-04-30 10:54 |
|---|---|
| Airport | Tokyo Haneda International Airport (RJTT) |
| Time | Latitude | Longitude | Altitude | Speed | Heading |
|---|---|---|---|---|---|
| 2026-04-30 09:21 | 42.78666 | 141.68277 | 74 ft | 0 kts | 284° |
| 2026-04-30 09:22 | 42.78660 | 141.68304 | 63 ft | 4 kts | 289° |
| 2026-04-30 09:22 | 42.78651 | 141.68339 | 63 ft | 4 kts | 286° |
| 2026-04-30 09:22 | 42.78647 | 141.68367 | 63 ft | 4 kts | 252° |
| 2026-04-30 09:22 | 42.78655 | 141.68394 | 63 ft | 4 kts | 227° |
| 2026-04-30 09:23 | 42.78672 | 141.68409 | 63 ft | 2 kts | 191° |
| 2026-04-30 09:23 | 42.78694 | 141.68414 | 65 ft | 0 kts | 192° |
| 2026-04-30 09:23 | 42.78695 | 141.68414 | 65 ft | 0 kts | 192° |
| 2026-04-30 09:24 | 42.78696 | 141.68414 | 66 ft | 0 kts | 192° |
| 2026-04-30 09:24 | 42.78697 | 141.68414 | 66 ft | 0 kts | 192° |
| 2026-04-30 09:24 | 42.78698 | 141.68414 | 67 ft | 0 kts | 192° |
| 2026-04-30 09:25 | 42.78700 | 141.68415 | 65 ft | 0 kts | 192° |
| 2026-04-30 09:25 | 42.78703 | 141.68415 | 66 ft | 0 kts | 192° |
| 2026-04-30 09:25 | 42.78706 | 141.68416 | 66 ft | 0 kts | 192° |
| 2026-04-30 09:25 | 42.78709 | 141.68417 | 64 ft | 0 kts | 192° |
| 2026-04-30 09:29 | 42.78703 | 141.68415 | 66 ft | 2 kts | 192° |
| 2026-04-30 09:29 | 42.78679 | 141.68415 | 66 ft | 2 kts | 168° |
| 2026-04-30 09:29 | 42.78672 | 141.68424 | 63 ft | 1 kts | 138° |
| 2026-04-30 09:29 | 42.78669 | 141.68431 | 65 ft | 1 kts | 121° |
| 2026-04-30 09:30 | 42.78668 | 141.68456 | 66 ft | 6 kts | 91° |
| 2026-04-30 09:30 | 42.78673 | 141.68526 | 72 ft | 9 kts | 84° |
| 2026-04-30 09:30 | 42.78704 | 141.68594 | 70 ft | 8 kts | 20° |
| 2026-04-30 09:30 | 42.78766 | 141.68595 | 59 ft | 10 kts | 356° |
| 2026-04-30 09:31 | 42.78847 | 141.68582 | 66 ft | 13 kts | 348° |
| 2026-04-30 09:31 | 42.78907 | 141.68564 | 68 ft | 0 kts | 356° |
| 2026-04-30 09:31 | 42.78913 | 141.68566 | 69 ft | 1 kts | 10° |
| 2026-04-30 09:31 | 42.78915 | 141.68568 | 69 ft | 0 kts | 21° |
| 2026-04-30 09:32 | 42.78922 | 141.68579 | 69 ft | 5 kts | 44° |
| 2026-04-30 09:32 | 42.78941 | 141.68653 | 66 ft | 10 kts | 89° |
| 2026-04-30 09:32 | 42.78907 | 141.68733 | 64 ft | 11 kts | 131° |
| 2026-04-30 09:32 | 42.78845 | 141.68806 | 63 ft | 12 kts | 158° |
| 2026-04-30 09:33 | 42.78806 | 141.68817 | 64 ft | 0 kts | 171° |
| 2026-04-30 09:33 | 42.78795 | 141.68819 | 67 ft | 15 kts | 171° |
| 2026-04-30 09:33 | 42.78348 | 141.68898 | 69 ft | 117 kts | 173° |
| 2026-04-30 09:34 | 42.77261 | 141.69108 | 373 ft | 180 kts | 174° |
| 2026-04-30 09:34 | 42.75998 | 141.69337 | 1547 ft | 182 kts | 175° |
| 2026-04-30 09:34 | 42.74832 | 141.69540 | 2806 ft | 176 kts | 176° |
| 2026-04-30 09:34 | 42.73673 | 141.69764 | 4007 ft | 170 kts | 174° |
| 2026-04-30 09:35 | 42.72588 | 141.69955 | 5088 ft | 166 kts | 174° |
| 2026-04-30 09:35 | 42.71405 | 141.70147 | 5931 ft | 180 kts | 176° |
| 2026-04-30 09:35 | 42.70058 | 141.70355 | 6520 ft | 210 kts | 176° |
| 2026-04-30 09:35 | 42.68569 | 141.70614 | 7503 ft | 221 kts | 174° |
| 2026-04-30 09:36 | 42.67053 | 141.70977 | 8792 ft | 222 kts | 172° |
| 2026-04-30 09:36 | 42.65771 | 141.71298 | 9739 ft | 228 kts | 172° |
| 2026-04-30 09:36 | 42.64366 | 141.71624 | 10603 ft | 238 kts | 173° |
| 2026-04-30 09:36 | 42.62637 | 141.71981 | 11237 ft | 265 kts | 175° |
| 2026-04-30 09:37 | 42.60705 | 141.72181 | 11806 ft | 291 kts | 180° |
| 2026-04-30 09:37 | 42.58605 | 141.72285 | 12401 ft | 315 kts | 180° |
| 2026-04-30 09:37 | 42.56334 | 141.72392 | 12984 ft | 336 kts | 180° |
| 2026-04-30 09:37 | 42.53924 | 141.72517 | 13592 ft | 356 kts | 180° |
| 2026-04-30 09:38 | 42.51429 | 141.72656 | 14377 ft | 368 kts | 180° |
| 2026-04-30 09:38 | 42.48857 | 141.72812 | 15281 ft | 375 kts | 180° |
| 2026-04-30 09:38 | 42.46237 | 141.72997 | 16243 ft | 381 kts | 180° |
| 2026-04-30 09:38 | 42.44460 | 141.73129 | 16867 ft | 385 kts | 180° |
| 2026-04-30 09:39 | 42.40839 | 141.73400 | 18100 ft | 394 kts | 180° |
| 2026-04-30 09:39 | 42.38096 | 141.73604 | 18936 ft | 399 kts | 181° |
| 2026-04-30 09:39 | 42.35298 | 141.73807 | 19693 ft | 405 kts | 181° |
| 2026-04-30 09:39 | 42.32489 | 141.74008 | 20460 ft | 410 kts | 180° |
| 2026-04-30 09:40 | 42.29587 | 141.74215 | 21209 ft | 415 kts | 180° |
| 2026-04-30 09:40 | 42.26694 | 141.74421 | 21942 ft | 420 kts | 180° |
| 2026-04-30 09:40 | 42.23760 | 141.74631 | 22651 ft | 425 kts | 180° |
| 2026-04-30 09:40 | 42.20774 | 141.74845 | 23361 ft | 430 kts | 180° |
| 2026-04-30 09:41 | 42.17803 | 141.75058 | 23994 ft | 434 kts | 180° |
| 2026-04-30 09:41 | 42.14773 | 141.75277 | 24580 ft | 437 kts | 181° |
| 2026-04-30 09:41 | 42.11740 | 141.75499 | 25192 ft | 440 kts | 181° |
| 2026-04-30 09:41 | 42.08669 | 141.75722 | 25797 ft | 442 kts | 181° |
| 2026-04-30 09:42 | 42.05582 | 141.75945 | 26391 ft | 445 kts | 182° |
| 2026-04-30 09:42 | 42.02482 | 141.76166 | 26989 ft | 448 kts | 182° |
| 2026-04-30 09:42 | 41.99374 | 141.76387 | 27581 ft | 450 kts | 182° |
| 2026-04-30 09:42 | 41.96241 | 141.76609 | 28167 ft | 453 kts | 183° |
| 2026-04-30 09:43 | 41.94107 | 141.76760 | 28550 ft | 455 kts | 183° |
| 2026-04-30 09:43 | 41.89901 | 141.77057 | 29280 ft | 459 kts | 184° |
| 2026-04-30 09:43 | 41.86738 | 141.77280 | 29806 ft | 462 kts | 184° |
| 2026-04-30 09:43 | 41.83510 | 141.77508 | 30318 ft | 465 kts | 184° |
| 2026-04-30 09:44 | 41.81350 | 141.77660 | 30592 ft | 467 kts | 184° |
| 2026-04-30 09:44 | 41.78052 | 141.77893 | 31004 ft | 470 kts | 185° |
| 2026-04-30 09:44 | 41.74817 | 141.78122 | 31403 ft | 473 kts | 185° |
| 2026-04-30 09:44 | 41.71507 | 141.78356 | 31803 ft | 475 kts | 186° |
| 2026-04-30 09:45 | 41.68212 | 141.78588 | 32184 ft | 477 kts | 186° |
| 2026-04-30 09:45 | 41.64875 | 141.78823 | 32549 ft | 480 kts | 186° |
| 2026-04-30 09:45 | 41.61542 | 141.79058 | 32923 ft | 482 kts | 187° |
| 2026-04-30 09:45 | 41.58172 | 141.79295 | 33279 ft | 484 kts | 187° |
| 2026-04-30 09:46 | 41.54814 | 141.79532 | 33679 ft | 484 kts | 187° |
| 2026-04-30 09:46 | 41.51469 | 141.79620 | 34161 ft | 474 kts | 193° |
| 2026-04-30 09:46 | 41.48281 | 141.79188 | 34588 ft | 460 kts | 200° |
| 2026-04-30 09:46 | 41.45160 | 141.78385 | 34994 ft | 453 kts | 204° |
| 2026-04-30 09:47 | 41.42101 | 141.77417 | 35366 ft | 450 kts | 205° |
| 2026-04-30 09:47 | 41.38078 | 141.76030 | 35874 ft | 447 kts | 206° |
| 2026-04-30 09:47 | 41.36075 | 141.75330 | 36133 ft | 447 kts | 206° |
| 2026-04-30 09:47 | 41.33050 | 141.74286 | 36504 ft | 446 kts | 206° |
| 2026-04-30 09:48 | 41.30059 | 141.73277 | 36861 ft | 445 kts | 206° |
| 2026-04-30 09:48 | 41.27060 | 141.72286 | 37215 ft | 444 kts | 205° |
| 2026-04-30 09:48 | 41.24054 | 141.71307 | 37582 ft | 443 kts | 205° |
| 2026-04-30 09:48 | 41.21053 | 141.70338 | 37935 ft | 442 kts | 205° |
| 2026-04-30 09:49 | 41.18054 | 141.69372 | 38294 ft | 441 kts | 206° |
| 2026-04-30 09:49 | 41.15076 | 141.68413 | 38615 ft | 440 kts | 206° |
| 2026-04-30 09:49 | 41.12105 | 141.67456 | 38919 ft | 439 kts | 206° |
| 2026-04-30 09:49 | 41.09182 | 141.66514 | 39167 ft | 438 kts | 206° |
| 2026-04-30 09:50 | 41.06214 | 141.65557 | 39406 ft | 437 kts | 206° |
| 2026-04-30 09:50 | 41.03223 | 141.64592 | 39641 ft | 437 kts | 206° |
| 2026-04-30 09:50 | 41.00306 | 141.63652 | 39876 ft | 436 kts | 206° |
| 2026-04-30 09:50 | 40.97361 | 141.62706 | 40099 ft | 436 kts | 206° |
| 2026-04-30 09:51 | 40.91440 | 141.60800 | 40168 ft | 437 kts | 206° |
| 2026-04-30 09:51 | 40.85540 | 141.58914 | 40165 ft | 434 kts | 206° |
| 2026-04-30 09:52 | 40.79714 | 141.57055 | 40162 ft | 432 kts | 206° |
| 2026-04-30 09:52 | 40.73903 | 141.55200 | 40159 ft | 430 kts | 206° |
| 2026-04-30 09:53 | 40.68092 | 141.53347 | 40155 ft | 428 kts | 207° |
| 2026-04-30 09:53 | 40.62327 | 141.51513 | 40156 ft | 426 kts | 207° |
| 2026-04-30 09:54 | 40.56549 | 141.49677 | 40159 ft | 425 kts | 207° |
| 2026-04-30 09:54 | 40.50806 | 141.47855 | 40164 ft | 424 kts | 207° |
| 2026-04-30 09:55 | 40.45057 | 141.46036 | 40165 ft | 423 kts | 207° |
| 2026-04-30 09:55 | 40.39345 | 141.44232 | 40170 ft | 422 kts | 207° |
| 2026-04-30 09:56 | 40.33679 | 141.42445 | 40177 ft | 422 kts | 207° |
| 2026-04-30 09:56 | 40.27969 | 141.40648 | 40183 ft | 421 kts | 207° |
| 2026-04-30 09:57 | 40.22282 | 141.38861 | 40188 ft | 421 kts | 207° |
| 2026-04-30 09:57 | 40.16580 | 141.37073 | 40188 ft | 420 kts | 207° |
| 2026-04-30 09:58 | 40.10913 | 141.35301 | 40190 ft | 419 kts | 207° |
| 2026-04-30 09:58 | 40.05240 | 141.33528 | 40194 ft | 418 kts | 207° |
| 2026-04-30 09:59 | 39.93944 | 141.29931 | 40195 ft | 416 kts | 208° |
| 2026-04-30 10:00 | 39.85557 | 141.27138 | 40204 ft | 416 kts | 208° |
| 2026-04-30 10:01 | 39.77233 | 141.24400 | 40205 ft | 415 kts | 208° |
| 2026-04-30 10:02 | 39.68816 | 141.21648 | 40188 ft | 414 kts | 208° |
| 2026-04-30 10:02 | 39.63241 | 141.19829 | 40182 ft | 413 kts | 208° |
| 2026-04-30 10:03 | 39.57669 | 141.18013 | 40170 ft | 412 kts | 208° |
| 2026-04-30 10:03 | 39.52129 | 141.16209 | 40156 ft | 412 kts | 208° |
| 2026-04-30 10:04 | 39.46577 | 141.14405 | 40156 ft | 412 kts | 208° |
| 2026-04-30 10:04 | 39.40994 | 141.12606 | 40151 ft | 413 kts | 207° |
| 2026-04-30 10:05 | 39.35420 | 141.10918 | 40140 ft | 414 kts | 207° |
| 2026-04-30 10:05 | 39.29791 | 141.09248 | 40164 ft | 413 kts | 206° |
| 2026-04-30 10:06 | 39.24223 | 141.07585 | 40186 ft | 412 kts | 206° |
| 2026-04-30 10:06 | 39.18650 | 141.05910 | 40192 ft | 412 kts | 206° |
| 2026-04-30 10:07 | 39.13061 | 141.04231 | 40213 ft | 412 kts | 206° |
| 2026-04-30 10:07 | 39.07498 | 141.02561 | 40218 ft | 412 kts | 206° |
| 2026-04-30 10:08 | 39.01907 | 141.00886 | 40228 ft | 412 kts | 206° |
| 2026-04-30 10:08 | 38.96312 | 140.99214 | 40225 ft | 412 kts | 206° |
| 2026-04-30 10:09 | 38.90713 | 140.97546 | 40229 ft | 413 kts | 206° |
| 2026-04-30 10:09 | 38.85117 | 140.95880 | 40224 ft | 413 kts | 206° |
| 2026-04-30 10:10 | 38.79692 | 140.94267 | 40226 ft | 412 kts | 206° |
| 2026-04-30 10:10 | 38.74086 | 140.92601 | 40223 ft | 412 kts | 206° |
| 2026-04-30 10:11 | 38.68530 | 140.90950 | 40227 ft | 412 kts | 206° |
| 2026-04-30 10:11 | 38.62933 | 140.89297 | 40227 ft | 412 kts | 206° |
| 2026-04-30 10:12 | 38.57357 | 140.87652 | 40229 ft | 412 kts | 206° |
| 2026-04-30 10:12 | 38.51734 | 140.86005 | 40222 ft | 413 kts | 206° |
| 2026-04-30 10:13 | 38.46141 | 140.84355 | 40222 ft | 413 kts | 206° |
| 2026-04-30 10:13 | 38.40544 | 140.82701 | 40209 ft | 413 kts | 206° |
| 2026-04-30 10:14 | 38.34985 | 140.81066 | 40202 ft | 413 kts | 206° |
| 2026-04-30 10:14 | 38.26572 | 140.78601 | 40190 ft | 413 kts | 206° |
| 2026-04-30 10:15 | 38.20976 | 140.76972 | 40193 ft | 414 kts | 206° |
| 2026-04-30 10:15 | 38.15370 | 140.75337 | 40190 ft | 414 kts | 206° |
| 2026-04-30 10:16 | 38.09743 | 140.73692 | 40192 ft | 415 kts | 206° |
| 2026-04-30 10:17 | 38.01298 | 140.71231 | 40201 ft | 415 kts | 206° |
| 2026-04-30 10:17 | 37.92808 | 140.68766 | 40209 ft | 416 kts | 206° |
| 2026-04-30 10:18 | 37.87183 | 140.67137 | 40215 ft | 417 kts | 206° |
| 2026-04-30 10:19 | 37.78705 | 140.64688 | 40223 ft | 418 kts | 206° |
| 2026-04-30 10:19 | 37.73026 | 140.63052 | 40228 ft | 419 kts | 205° |
| 2026-04-30 10:20 | 37.67330 | 140.61415 | 40231 ft | 419 kts | 206° |
| 2026-04-30 10:20 | 37.58778 | 140.58947 | 40228 ft | 420 kts | 205° |
| 2026-04-30 10:21 | 37.53073 | 140.57308 | 40227 ft | 420 kts | 205° |
| 2026-04-30 10:21 | 37.47364 | 140.55669 | 40224 ft | 421 kts | 205° |
| 2026-04-30 10:22 | 37.41701 | 140.54048 | 40222 ft | 422 kts | 205° |
| 2026-04-30 10:22 | 37.36132 | 140.52456 | 40220 ft | 422 kts | 205° |
| 2026-04-30 10:23 | 37.30443 | 140.50833 | 40211 ft | 423 kts | 205° |
| 2026-04-30 10:23 | 37.24701 | 140.49197 | 40212 ft | 424 kts | 205° |
| 2026-04-30 10:24 | 37.18944 | 140.47569 | 40211 ft | 424 kts | 205° |
| 2026-04-30 10:24 | 37.13416 | 140.46001 | 40209 ft | 425 kts | 205° |
| 2026-04-30 10:25 | 37.10508 | 140.45175 | 40080 ft | 422 kts | 205° |
| 2026-04-30 10:25 | 37.07646 | 140.44366 | 39422 ft | 422 kts | 206° |
| 2026-04-30 10:25 | 37.04808 | 140.43558 | 38717 ft | 424 kts | 206° |
| 2026-04-30 10:25 | 37.01935 | 140.42737 | 37898 ft | 425 kts | 205° |
| 2026-04-30 10:26 | 36.99046 | 140.41910 | 36990 ft | 428 kts | 205° |
| 2026-04-30 10:26 | 36.96102 | 140.41066 | 36056 ft | 433 kts | 205° |
| 2026-04-30 10:26 | 36.93145 | 140.40221 | 35140 ft | 437 kts | 204° |
| 2026-04-30 10:26 | 36.90184 | 140.39385 | 34211 ft | 442 kts | 203° |
| 2026-04-30 10:27 | 36.87164 | 140.38539 | 33148 ft | 446 kts | 203° |
| 2026-04-30 10:27 | 36.84092 | 140.37676 | 32040 ft | 451 kts | 203° |
| 2026-04-30 10:27 | 36.81049 | 140.36818 | 30961 ft | 456 kts | 202° |
| 2026-04-30 10:27 | 36.77903 | 140.35931 | 29866 ft | 460 kts | 202° |
| 2026-04-30 10:28 | 36.74812 | 140.35063 | 28738 ft | 462 kts | 202° |
| 2026-04-30 10:28 | 36.71673 | 140.34222 | 27654 ft | 466 kts | 200° |
| 2026-04-30 10:28 | 36.68462 | 140.33524 | 26665 ft | 468 kts | 198° |
| 2026-04-30 10:28 | 36.65214 | 140.32921 | 25758 ft | 468 kts | 197° |
| 2026-04-30 10:29 | 36.62026 | 140.32360 | 24918 ft | 466 kts | 196° |
| 2026-04-30 10:29 | 36.59026 | 140.31822 | 24161 ft | 463 kts | 197° |
| 2026-04-30 10:29 | 36.55846 | 140.31216 | 23237 ft | 461 kts | 197° |
| 2026-04-30 10:29 | 36.52777 | 140.30624 | 22021 ft | 441 kts | 197° |
| 2026-04-30 10:30 | 36.49748 | 140.30035 | 20438 ft | 429 kts | 197° |
| 2026-04-30 10:30 | 36.47842 | 140.29657 | 19913 ft | 412 kts | 197° |
| 2026-04-30 10:30 | 36.44167 | 140.28934 | 19333 ft | 397 kts | 197° |
| 2026-04-30 10:30 | 36.41427 | 140.28379 | 18653 ft | 397 kts | 197° |
| 2026-04-30 10:31 | 36.38701 | 140.27831 | 17884 ft | 398 kts | 196° |
| 2026-04-30 10:31 | 36.35975 | 140.27286 | 17167 ft | 397 kts | 195° |
| 2026-04-30 10:31 | 36.33262 | 140.26737 | 16469 ft | 396 kts | 195° |
| 2026-04-30 10:31 | 36.31474 | 140.26377 | 15991 ft | 395 kts | 195° |
| 2026-04-30 10:32 | 36.28754 | 140.25831 | 15265 ft | 395 kts | 195° |
| 2026-04-30 10:32 | 36.26121 | 140.25305 | 14559 ft | 394 kts | 194° |
| 2026-04-30 10:32 | 36.23460 | 140.24775 | 13850 ft | 393 kts | 194° |
| 2026-04-30 10:32 | 36.21143 | 140.24315 | 13414 ft | 388 kts | 194° |
| 2026-04-30 10:33 | 36.18479 | 140.23797 | 13080 ft | 386 kts | 193° |
| 2026-04-30 10:33 | 36.15821 | 140.23271 | 13015 ft | 386 kts | 194° |
| 2026-04-30 10:33 | 36.13190 | 140.22746 | 12634 ft | 378 kts | 193° |
| 2026-04-30 10:33 | 36.11052 | 140.22316 | 11860 ft | 380 kts | 193° |
| 2026-04-30 10:34 | 36.08632 | 140.21830 | 11522 ft | 370 kts | 192° |
| 2026-04-30 10:34 | 36.06157 | 140.21342 | 11379 ft | 370 kts | 192° |
| 2026-04-30 10:34 | 36.03584 | 140.20832 | 11151 ft | 372 kts | 192° |
| 2026-04-30 10:34 | 36.01008 | 140.20474 | 10907 ft | 372 kts | 186° |
| 2026-04-30 10:35 | 35.98433 | 140.20413 | 10723 ft | 372 kts | 183° |
| 2026-04-30 10:35 | 35.95836 | 140.20404 | 10520 ft | 370 kts | 183° |
| 2026-04-30 10:35 | 35.93277 | 140.20378 | 10343 ft | 365 kts | 183° |
| 2026-04-30 10:35 | 35.92455 | 140.20367 | 10289 ft | 361 kts | 183° |
| 2026-04-30 10:36 | 35.91600 | 140.20356 | 10242 ft | 354 kts | 183° |
| 2026-04-30 10:36 | 35.89727 | 140.20331 | 10089 ft | 341 kts | 183° |
| 2026-04-30 10:36 | 35.87411 | 140.20298 | 9865 ft | 326 kts | 183° |
| 2026-04-30 10:36 | 35.85458 | 140.20270 | 9701 ft | 312 kts | 183° |
| 2026-04-30 10:37 | 35.83391 | 140.20239 | 9536 ft | 298 kts | 183° |
| 2026-04-30 10:37 | 35.81355 | 140.20207 | 9364 ft | 285 kts | 183° |
| 2026-04-30 10:37 | 35.80225 | 140.20189 | 9288 ft | 278 kts | 183° |
| 2026-04-30 10:37 | 35.78985 | 140.20169 | 9215 ft | 275 kts | 183° |
| 2026-04-30 10:38 | 35.78144 | 140.20155 | 9171 ft | 275 kts | 184° |
| 2026-04-30 10:38 | 35.76248 | 140.20176 | 9011 ft | 279 kts | 181° |
| 2026-04-30 10:38 | 35.74304 | 140.20285 | 8880 ft | 279 kts | 180° |
| 2026-04-30 10:38 | 35.72361 | 140.20400 | 8722 ft | 278 kts | 180° |
| 2026-04-30 10:39 | 35.70440 | 140.20501 | 8576 ft | 277 kts | 180° |
| 2026-04-30 10:39 | 35.68559 | 140.20596 | 8450 ft | 266 kts | 180° |
| 2026-04-30 10:39 | 35.66751 | 140.20685 | 8298 ft | 255 kts | 181° |
| 2026-04-30 10:39 | 35.65013 | 140.20735 | 8218 ft | 240 kts | 183° |
| 2026-04-30 10:40 | 35.63348 | 140.20488 | 8029 ft | 247 kts | 193° |
| 2026-04-30 10:40 | 35.61591 | 140.20047 | 7983 ft | 267 kts | 194° |
| 2026-04-30 10:40 | 35.59752 | 140.19569 | 7936 ft | 272 kts | 194° |
| 2026-04-30 10:40 | 35.57893 | 140.19088 | 7882 ft | 272 kts | 194° |
| 2026-04-30 10:41 | 35.56054 | 140.18609 | 7767 ft | 273 kts | 194° |
| 2026-04-30 10:41 | 35.54200 | 140.18124 | 7524 ft | 271 kts | 194° |
| 2026-04-30 10:41 | 35.52393 | 140.17649 | 7272 ft | 270 kts | 194° |
| 2026-04-30 10:41 | 35.50585 | 140.17174 | 7061 ft | 269 kts | 194° |
| 2026-04-30 10:42 | 35.48755 | 140.16693 | 6814 ft | 268 kts | 194° |
| 2026-04-30 10:42 | 35.46927 | 140.16213 | 6562 ft | 268 kts | 193° |
| 2026-04-30 10:42 | 35.45105 | 140.15733 | 6307 ft | 267 kts | 193° |
| 2026-04-30 10:42 | 35.43297 | 140.15257 | 6060 ft | 265 kts | 193° |
| 2026-04-30 10:43 | 35.41494 | 140.14785 | 6000 ft | 264 kts | 193° |
| 2026-04-30 10:43 | 35.39700 | 140.14316 | 5984 ft | 265 kts | 193° |
| 2026-04-30 10:43 | 35.37902 | 140.13845 | 6000 ft | 265 kts | 193° |
| 2026-04-30 10:43 | 35.36092 | 140.13372 | 5963 ft | 265 kts | 193° |
| 2026-04-30 10:44 | 35.34280 | 140.12898 | 5631 ft | 266 kts | 193° |
| 2026-04-30 10:44 | 35.32539 | 140.12439 | 5215 ft | 266 kts | 193° |
| 2026-04-30 10:44 | 35.30735 | 140.11965 | 4759 ft | 265 kts | 192° |
| 2026-04-30 10:44 | 35.28939 | 140.11488 | 4307 ft | 265 kts | 191° |
| 2026-04-30 10:45 | 35.27143 | 140.11014 | 3857 ft | 264 kts | 190° |
| 2026-04-30 10:45 | 35.25386 | 140.10400 | 3382 ft | 255 kts | 199° |
| 2026-04-30 10:45 | 35.23930 | 140.09273 | 2910 ft | 246 kts | 219° |
| 2026-04-30 10:45 | 35.22964 | 140.07585 | 2441 ft | 240 kts | 244° |
| 2026-04-30 10:46 | 35.22684 | 140.05652 | 2062 ft | 230 kts | 271° |
| 2026-04-30 10:46 | 35.23094 | 140.03803 | 1979 ft | 222 kts | 299° |
| 2026-04-30 10:46 | 35.24083 | 140.02429 | 2001 ft | 216 kts | 326° |
| 2026-04-30 10:46 | 35.25315 | 140.01422 | 2008 ft | 210 kts | 332° |
| 2026-04-30 10:47 | 35.26548 | 140.00444 | 1988 ft | 212 kts | 331° |
| 2026-04-30 10:47 | 35.27766 | 139.99426 | 2006 ft | 213 kts | 329° |
| 2026-04-30 10:47 | 35.28967 | 139.98369 | 1990 ft | 212 kts | 329° |
| 2026-04-30 10:47 | 35.30156 | 139.97301 | 1982 ft | 213 kts | 328° |
| 2026-04-30 10:48 | 35.31352 | 139.96221 | 1989 ft | 212 kts | 328° |
| 2026-04-30 10:48 | 35.32534 | 139.95151 | 1994 ft | 211 kts | 328° |
| 2026-04-30 10:48 | 35.33688 | 139.94109 | 1993 ft | 211 kts | 328° |
| 2026-04-30 10:48 | 35.34868 | 139.93038 | 1989 ft | 211 kts | 328° |
| 2026-04-30 10:49 | 35.35844 | 139.92151 | 1988 ft | 211 kts | 328° |
| 2026-04-30 10:49 | 35.37044 | 139.91062 | 1992 ft | 211 kts | 328° |
| 2026-04-30 10:49 | 35.38216 | 139.89999 | 1995 ft | 210 kts | 328° |
| 2026-04-30 10:49 | 35.39350 | 139.88962 | 1983 ft | 197 kts | 328° |
| 2026-04-30 10:50 | 35.40421 | 139.87983 | 1985 ft | 189 kts | 329° |
| 2026-04-30 10:50 | 35.41520 | 139.87092 | 1976 ft | 186 kts | 336° |
| 2026-04-30 10:50 | 35.42742 | 139.86749 | 2006 ft | 182 kts | 1° |
| 2026-04-30 10:50 | 35.44019 | 139.86662 | 1982 ft | 180 kts | 2° |
| 2026-04-30 10:51 | 35.45242 | 139.86428 | 1922 ft | 181 kts | 354° |
| 2026-04-30 10:51 | 35.46413 | 139.85882 | 1794 ft | 176 kts | 339° |
| 2026-04-30 10:51 | 35.47439 | 139.85104 | 1558 ft | 169 kts | 334° |
| 2026-04-30 10:51 | 35.48413 | 139.84458 | 1423 ft | 155 kts | 338° |
| 2026-04-30 10:52 | 35.49315 | 139.83815 | 1230 ft | 145 kts | 335° |
| 2026-04-30 10:52 | 35.49857 | 139.83423 | 1098 ft | 137 kts | 335° |
| 2026-04-30 10:52 | 35.50575 | 139.82919 | 936 ft | 130 kts | 335° |
| 2026-04-30 10:52 | 35.51355 | 139.82368 | 752 ft | 130 kts | 334° |
| 2026-04-30 10:53 | 35.52131 | 139.81813 | 538 ft | 126 kts | 333° |
| 2026-04-30 10:53 | 35.52889 | 139.81293 | 396 ft | 123 kts | 334° |
| 2026-04-30 10:53 | 35.53636 | 139.80765 | 214 ft | 127 kts | 332° |
| 2026-04-30 10:53 | 35.54388 | 139.80218 | 55 ft | 121 kts | 332° |
| 2026-04-30 10:54 | 35.55050 | 139.79749 | 35 ft | 89 kts | 329° |
| 2026-04-30 10:54 | 35.55436 | 139.79472 | 33 ft | 44 kts | 330° |
| 2026-04-30 10:54 | 35.55679 | 139.79287 | 33 ft | 39 kts | 321° |
| 2026-04-30 10:54 | 35.55788 | 139.79114 | 30 ft | 26 kts | 303° |
| 2026-04-30 10:55 | 35.55863 | 139.78950 | 29 ft | 3 kts | 296° |
| 2026-04-30 10:55 | 35.55868 | 139.78938 | 29 ft | 4 kts | 299° |
| 2026-04-30 10:55 | 35.55886 | 139.78907 | 30 ft | 7 kts | 310° |
| 2026-04-30 10:55 | 35.55929 | 139.78869 | 30 ft | 9 kts | 328° |
| 2026-04-30 10:56 | 35.55980 | 139.78832 | 30 ft | 11 kts | 331° |
| 2026-04-30 10:56 | 35.56055 | 139.78779 | 31 ft | 14 kts | 329° |
| 2026-04-30 10:56 | 35.56074 | 139.78763 | 30 ft | 4 kts | 324° |
| 2026-04-30 10:56 | 35.56095 | 139.78718 | 30 ft | 7 kts | 275° |
| 2026-04-30 10:57 | 35.56060 | 139.78664 | 29 ft | 9 kts | 193° |
| 2026-04-30 10:57 | 35.55991 | 139.78693 | 29 ft | 15 kts | 147° |
| 2026-04-30 10:57 | 35.55884 | 139.78773 | 29 ft | 21 kts | 149° |
| 2026-04-30 10:57 | 35.55744 | 139.78873 | 30 ft | 25 kts | 150° |
| 2026-04-30 10:58 | 35.55589 | 139.78983 | 32 ft | 27 kts | 150° |
| 2026-04-30 10:58 | 35.55419 | 139.79103 | 32 ft | 28 kts | 149° |
| 2026-04-30 10:58 | 35.55252 | 139.79222 | 33 ft | 28 kts | 150° |
| 2026-04-30 10:58 | 35.55151 | 139.79294 | 31 ft | 1 kts | 149° |
| 2026-04-30 10:59 | 35.55129 | 139.79308 | 31 ft | 7 kts | 156° |
| 2026-04-30 10:59 | 35.55078 | 139.79297 | 32 ft | 9 kts | 212° |
| 2026-04-30 10:59 | 35.55041 | 139.79233 | 33 ft | 10 kts | 247° |
| 2026-04-30 10:59 | 35.55047 | 139.79158 | 34 ft | 9 kts | 300° |
| 2026-04-30 11:00 | 35.55103 | 139.79106 | 34 ft | 11 kts | 330° |
| 2026-04-30 11:00 | 35.55179 | 139.79049 | 33 ft | 15 kts | 329° |
| 2026-04-30 11:00 | 35.55273 | 139.78984 | 34 ft | 15 kts | 330° |
| 2026-04-30 11:00 | 35.55328 | 139.78946 | 33 ft | 4 kts | 330° |
| 2026-04-30 11:01 | 35.55349 | 139.78920 | 33 ft | 4 kts | 294° |
| 2026-04-30 11:01 | 35.55347 | 139.78881 | 33 ft | 6 kts | 256° |
| 2026-04-30 11:01 | 35.55345 | 139.78874 | 33 ft | 0 kts | 250° |
| 2026-04-30 11:01 | 35.55343 | 139.78873 | 33 ft | 0 kts | 236° |
| 2026-04-30 11:02 | 35.55340 | 139.78869 | 33 ft | 2 kts | 230° |
| 2026-04-30 11:02 | 35.55330 | 139.78852 | 33 ft | 2 kts | 236° |
| 2026-04-30 11:02 | 35.55322 | 139.78836 | 34 ft | 2 kts | 238° |
| 2026-04-30 11:02 | 35.55320 | 139.78831 | 34 ft | 0 kts | 238° |